Virtual Norwegian is not affiliated with Norwegian Air Shuttle in any way.
If you are looking for the real "Norwegian", or you wish to book Norwegian flights, please visit Norwegian.com


We use cookies to ensure you get the best experience on our website.   ACCEPT

LDPL - PUY - Pula (Pula)

General Info Alternate Airport
ICAO: LDPL Elevation: 274 ft ICAO: LDRI
IATA: PUY Country: Croatia IATA: RJK
City: Pula Charts: Log in to view charts City: Rijeka
Name: Pula Hub: No Name Rijeka
General Info
ICAO: LDPL
IATA: PUY
City: Pula
Name: Pula
Elevation: 274 ft
Country: Croatia
Charts: Log in to view charts
Hub: No
 
Alternate Airport
ICAO: LDRI
IATA: RJK
City: Rijeka
Name: Rijeka

Weather
140600Z 04008KT CAVOK 09/07 Q1008 NOSIG
Weather
140600Z 04008KT CAVOK 09/07 Q1008 NOSIG

Runway Info
09
Length ILS/LOC Heading
2946 m N/A 088
27
Length ILS/LOC Course
2946 m 111.50 265

NOTAMs
NOTAMs currently unavailable.
NOTAMs
NOTAMs currently unavailable

Route map
Airport
Airport (hub)